Time;durP1;ratioP1;P1;durP2;ratioP2;P2;SDS_P1;SDS_P2;PMS_P1;PMS_P2;Temp;Humidity;BMP_temperature;BMP_pressure;BME280_temperature;BME280_humidity;BME280_pressure;Samples;Min_cycle;Max_cycle;Signal;HPM_P1;HPM_P2
2023/06/10 00:00:15;;;;;;;;;;;18.80;99.90;18.80;99077.00;;;;342331;28;84125;-91
2023/06/10 00:00:27;;;;;;;;;;;18.80;99.90;18.80;99084.00;;;;343773;28;83221;-91
2023/06/10 00:00:41;;;;;;;;;;;18.80;99.90;18.70;99084.00;;;;343443;28;85925;-91
2023/06/10 00:00:53;;;;;;;;;;;18.70;99.90;18.70;99087.00;;;;342190;28;83468;-90
2023/06/10 00:01:04;;;;;;;;;;;18.70;99.90;18.80;99086.00;;;;346054;28;87561;-91
2023/06/10 00:01:16;;;;;;;;;;;18.70;99.90;18.80;99084.00;;;;345049;28;83352;-89
2023/06/10 00:01:30;;;;;;;;;;;18.70;99.90;18.80;99085.00;;;;345008;28;83722;-90
2023/06/10 00:01:43;;;;;;;;;;;18.70;99.90;18.80;99069.00;;;;343301;28;82480;-91
2023/06/10 00:01:59;;;;;;;;;;;18.70;99.90;18.80;99078.00;;;;342482;28;82469;-90
2023/06/10 00:02:11;;;;;;;;;;;18.70;99.90;18.70;99084.00;;;;341020;28;83323;-90
2023/06/10 00:02:23;;;;;;;;;;;18.70;99.90;18.80;99078.00;;;;342251;28;84780;-90
2023/06/10 00:02:35;;;;;;;;;;;18.80;99.90;18.80;99083.00;;;;343705;28;83502;-91
2023/06/10 00:02:47;;;;;;;;;;;18.70;99.90;18.90;99080.00;;;;342101;28;86445;-91
2023/06/10 00:02:59;;;;;;;;;;;18.70;99.90;18.90;99074.00;;;;340939;28;83421;-91
2023/06/10 00:03:12;;;;;;;;;;;18.70;99.90;18.80;99070.00;;;;342242;28;86741;-90
2023/06/10 00:03:25;;;;;;;;;;;18.70;99.90;18.80;99075.00;;;;342240;28;82448;-91
2023/06/10 00:03:37;;;;;;;;;;;18.70;99.90;18.80;99081.00;;;;341939;28;87485;-90
2023/06/10 00:03:52;;;;;;;;;;;18.70;99.90;18.80;99083.00;;;;342362;28;82593;-90
2023/06/10 00:04:05;;;;;;;;;;;18.80;99.90;18.80;99081.00;;;;345016;28;84593;-90
2023/06/10 00:04:17;;;;;;;;;;;18.70;99.90;18.80;99075.00;;;;343859;28;83364;-90
2023/06/10 00:04:29;;;;;;;;;;;18.70;99.90;18.80;99082.00;;;;344864;28;84000;-91
2023/06/10 00:04:41;;;;;;;;;;;18.70;99.90;18.80;99078.00;;;;342290;28;83367;-90
2023/06/10 00:04:53;;;;;;;;;;;18.70;99.90;18.80;99079.00;;;;341926;28;85181;-91
2023/06/10 00:05:07;;;;;;;;;;;18.70;99.90;18.80;99077.00;;;;340944;28;82308;-90
2023/06/10 00:05:21;;;;;;;;;;;18.70;99.90;18.80;99079.00;;;;343178;28;86330;-90
2023/06/10 00:05:34;;;;;;;;;;;18.80;99.90;18.80;99079.00;;;;344983;28;82259;-91
2023/06/10 00:05:46;;;;;;;;;;;18.70;99.90;18.80;99075.00;;;;343202;28;85340;-91
2023/06/10 00:05:58;;;;;;;;;;;18.70;99.90;18.70;99081.00;;;;343431;28;83273;-90
2023/06/10 00:06:10;;;;;;;;;;;18.70;99.90;18.80;99074.00;;;;342136;28;83969;-91
2023/06/10 00:06:24;;;;;;;;;;;18.80;99.90;18.80;99081.00;;;;343622;28;82363;-91
2023/06/10 00:06:36;;;;;;;;;;;18.70;99.90;18.70;99075.00;;;;344741;28;84392;-91
2023/06/10 00:06:49;;;;;;;;;;;18.70;99.90;18.80;99077.00;;;;343414;28;82567;-90
2023/06/10 00:07:02;;;;;;;;;;;18.70;99.90;18.80;99077.00;;;;341966;28;84570;-90
2023/06/10 00:07:14;;;;;;;;;;;18.70;99.90;18.80;99080.00;;;;343529;28;82568;-90
2023/06/10 00:07:26;;;;;;;;;;;18.70;99.90;18.90;99085.00;;;;341907;28;83090;-91
2023/06/10 00:07:38;;;;;;;;;;;18.70;99.90;18.80;99081.00;;;;343582;28;83325;-91
2023/06/10 00:07:49;;;;;;;;;;;18.70;99.90;18.90;99077.00;;;;341955;28;85671;-91
2023/06/10 00:08:07;;;;;;;;;;;18.70;99.90;18.90;99081.00;;;;342323;28;82532;-90
2023/06/10 00:08:19;;;;;;;;;;;18.70;99.90;18.80;99075.00;;;;343573;28;82511;-91
2023/06/10 00:08:31;;;;;;;;;;;18.70;99.90;18.70;99079.00;;;;342284;28;82430;-90
2023/06/10 00:08:43;;;;;;;;;;;18.70;99.90;18.80;99070.00;;;;343191;28;82745;-90
2023/06/10 00:08:56;;;;;;;;;;;18.70;99.90;18.70;99075.00;;;;344495;28;83563;-91
2023/06/10 00:09:10;;;;;;;;;;;18.70;99.90;18.80;99080.00;;;;341608;28;86719;-91
2023/06/10 00:09:22;;;;;;;;;;;18.70;99.90;18.90;99079.00;;;;344790;28;83532;-90
2023/06/10 00:09:36;;;;;;;;;;;18.70;99.90;18.90;99082.00;;;;343550;28;84387;-91
2023/06/10 00:09:48;;;;;;;;;;;18.70;99.90;18.70;99078.00;;;;340903;28;82370;-90
2023/06/10 00:10:04;;;;;;;;;;;18.70;99.90;18.70;99079.00;;;;343484;28;86094;-93
2023/06/10 00:10:16;;;;;;;;;;;18.70;99.90;18.70;99080.00;;;;342059;28;83495;-90
2023/06/10 00:10:28;;;;;;;;;;;18.70;99.90;18.70;99086.00;;;;340730;28;83784;-90
2023/06/10 00:10:40;;;;;;;;;;;18.70;99.90;18.80;99072.00;;;;340895;28;82432;-91
2023/06/10 00:10:53;;;;;;;;;;;18.70;99.90;18.90;99084.00;;;;344557;28;87063;-91
2023/06/10 00:11:05;;;;;;;;;;;18.70;99.90;18.80;99084.00;;;;343825;28;82503;-90
2023/06/10 00:11:17;;;;;;;;;;;18.70;99.90;18.80;99075.00;;;;343560;28;85320;-90
2023/06/10 00:11:29;;;;;;;;;;;18.70;99.90;18.80;99079.00;;;;343727;28;83448;-91
2023/06/10 00:11:41;;;;;;;;;;;18.70;99.90;18.80;99082.00;;;;340738;28;83958;-91
2023/06/10 00:11:53;;;;;;;;;;;18.70;99.90;18.80;99079.00;;;;340820;28;83552;-91
2023/06/10 00:12:06;;;;;;;;;;;18.70;99.90;18.80;99086.00;;;;343149;28;85954;-91
2023/06/10 00:12:20;;;;;;;;;;;18.70;99.90;18.90;99088.00;;;;346227;28;82631;-91
2023/06/10 00:12:36;;;;;;;;;;;18.70;99.90;18.90;99088.00;;;;343176;28;87802;-91
2023/06/10 00:12:48;;;;;;;;;;;18.70;99.90;18.90;99082.00;;;;342217;28;82636;-91
2023/06/10 00:13:01;;;;;;;;;;;18.70;99.90;18.90;99087.00;;;;344907;28;83963;-91
2023/06/10 00:13:13;;;;;;;;;;;18.70;99.90;18.90;99081.00;;;;344856;28;83274;-91
2023/06/10 00:13:25;;;;;;;;;;;18.70;99.90;19.00;99077.00;;;;342045;28;85532;-90
2023/06/10 00:13:36;;;;;;;;;;;18.70;99.90;19.00;99089.00;;;;342288;28;83373;-91
2023/06/10 00:13:48;;;;;;;;;;;18.70;99.90;18.90;99093.00;;;;346194;28;88150;-91
2023/06/10 00:14:00;;;;;;;;;;;18.70;99.90;18.90;99085.00;;;;343333;28;83505;-91
2023/06/10 00:14:12;;;;;;;;;;;18.70;99.90;18.90;99083.00;;;;342052;28;87608;-90
2023/06/10 00:14:24;;;;;;;;;;;18.70;99.90;18.90;99083.00;;;;343565;28;82287;-91
2023/06/10 00:14:38;;;;;;;;;;;18.70;99.90;18.90;99092.00;;;;343358;28;86605;-91
2023/06/10 00:14:51;;;;;;;;;;;18.70;99.90;18.90;99078.00;;;;342186;28;82562;-91
2023/06/10 00:15:05;;;;;;;;;;;18.70;99.90;18.90;99087.00;;;;344802;28;85780;-90
2023/06/10 00:15:17;;;;;;;;;;;18.70;99.90;18.80;99086.00;;;;343836;28;82488;-90
2023/06/10 00:15:29;;;;;;;;;;;18.70;99.90;18.70;99081.00;;;;342023;28;87018;-91
2023/06/10 00:15:41;;;;;;;;;;;18.70;99.90;18.80;99074.00;;;;343593;28;82548;-91
2023/06/10 00:15:53;;;;;;;;;;;18.70;99.90;18.80;99085.00;;;;343553;28;87536;-90
2023/06/10 00:16:05;;;;;;;;;;;18.70;99.90;18.80;99073.00;;;;342089;28;83610;-90
2023/06/10 00:16:18;;;;;;;;;;;18.70;99.90;18.80;99085.00;;;;346418;28;85104;-91
2023/06/10 00:16:30;;;;;;;;;;;18.70;99.90;18.80;99084.00;;;;345206;28;82356;-91
2023/06/10 00:16:44;;;;;;;;;;;18.70;99.90;18.80;99078.00;;;;342193;28;86707;-91
2023/06/10 00:16:57;;;;;;;;;;;18.70;99.90;18.80;99075.00;;;;342110;28;82589;-91
2023/06/10 00:17:09;;;;;;;;;;;18.70;99.90;18.80;99081.00;;;;343511;28;86161;-91
2023/06/10 00:17:23;;;;;;;;;;;18.70;99.90;18.90;99083.00;;;;346034;28;83402;-91
2023/06/10 00:17:38;;;;;;;;;;;18.80;99.90;19.00;99076.00;;;;346357;28;86536;-90
2023/06/10 00:17:52;;;;;;;;;;;18.70;99.90;19.00;99081.00;;;;343645;28;83613;-91
2023/06/10 00:18:05;;;;;;;;;;;18.80;99.90;18.90;99077.00;;;;343273;28;86511;-90
2023/06/10 00:18:17;;;;;;;;;;;18.80;99.90;18.90;99087.00;;;;344859;28;82629;-91
2023/06/10 00:18:31;;;;;;;;;;;18.80;99.90;18.90;99081.00;;;;344681;28;85448;-91
2023/06/10 00:18:43;;;;;;;;;;;18.80;99.90;18.90;99083.00;;;;343536;28;83475;-91
2023/06/10 00:18:55;;;;;;;;;;;18.80;99.90;18.90;99086.00;;;;343403;28;87160;-91
2023/06/10 00:19:08;;;;;;;;;;;18.80;99.90;18.90;99083.00;;;;344994;28;83379;-91
2023/06/10 00:19:25;;;;;;;;;;;18.80;99.90;18.90;99080.00;;;;343518;28;87622;-91
2023/06/10 00:19:41;;;;;;;;;;;18.80;99.90;18.80;99081.00;;;;343603;28;82681;-91
2023/06/10 00:19:53;;;;;;;;;;;18.80;99.90;18.80;99080.00;;;;343518;28;85961;-92
2023/06/10 00:20:08;;;;;;;;;;;18.80;99.90;18.80;99083.00;;;;339588;28;82605;-91
2023/06/10 00:20:23;;;;;;;;;;;18.80;99.90;18.90;99075.00;;;;342150;28;86757;-91
2023/06/10 00:20:37;;;;;;;;;;;18.80;99.90;18.90;99086.00;;;;346273;28;83394;-92
2023/06/10 00:20:52;;;;;;;;;;;18.80;99.90;18.90;99087.00;;;;343438;28;87607;-91
2023/06/10 00:21:05;;;;;;;;;;;18.80;99.90;18.80;99078.00;;;;342306;28;82533;-92
2023/06/10 00:21:18;;;;;;;;;;;18.80;99.90;18.80;99082.00;;;;347369;28;86102;-92
2023/06/10 00:21:40;;;;;;;;;;;18.80;99.90;18.70;99080.00;;;;343745;28;83374;-91
2023/06/10 00:21:52;;;;;;;;;;;18.80;99.90;18.80;99088.00;;;;340778;28;86799;-92
2023/06/10 00:22:04;;;;;;;;;;;18.80;99.90;18.90;99080.00;;;;344979;28;83488;-91
2023/06/10 00:22:16;;;;;;;;;;;18.80;99.90;18.90;99083.00;;;;345206;28;85702;-92
2023/06/10 00:22:29;;;;;;;;;;;18.80;99.90;18.90;99084.00;;;;342532;28;82409;-92
2023/06/10 00:22:45;;;;;;;;;;;18.80;99.90;18.80;99076.00;;;;344785;28;87163;-92
2023/06/10 00:22:59;;;;;;;;;;;18.80;99.90;18.90;99089.00;;;;342230;28;83435;-91
2023/06/10 00:23:11;;;;;;;;;;;18.80;99.90;19.00;99081.00;;;;343506;28;86551;-92
2023/06/10 00:23:24;;;;;;;;;;;18.80;99.90;18.90;99083.00;;;;342088;28;82576;-92
2023/06/10 00:23:38;;;;;;;;;;;18.80;99.90;18.90;99086.00;;;;342172;28;85626;-91
2023/06/10 00:23:50;;;;;;;;;;;18.80;99.90;18.90;99090.00;;;;345075;28;82341;-92
2023/06/10 00:24:02;;;;;;;;;;;18.80;99.90;18.90;99084.00;;;;346239;28;86577;-92
2023/06/10 00:24:14;;;;;;;;;;;18.80;99.90;18.90;99081.00;;;;342446;28;82566;-91
2023/06/10 00:24:26;;;;;;;;;;;18.80;99.90;18.90;99086.00;;;;344794;28;86594;-91
2023/06/10 00:24:39;;;;;;;;;;;18.80;99.90;18.90;99081.00;;;;346328;28;82547;-90
2023/06/10 00:24:51;;;;;;;;;;;18.80;99.90;18.90;99083.00;;;;341859;28;86282;-91
2023/06/10 00:25:07;;;;;;;;;;;18.80;99.90;18.90;99080.00;;;;343617;28;82496;-91
2023/06/10 00:25:20;;;;;;;;;;;18.80;99.90;18.90;99078.00;;;;346194;28;86363;-91
2023/06/10 00:25:32;;;;;;;;;;;18.80;99.90;18.90;99072.00;;;;340958;28;82494;-90
2023/06/10 00:25:44;;;;;;;;;;;18.80;99.90;18.90;99079.00;;;;343420;28;86546;-90
2023/06/10 00:25:58;;;;;;;;;;;18.80;99.90;18.90;99084.00;;;;344832;28;83493;-91
2023/06/10 00:26:10;;;;;;;;;;;18.80;99.90;18.90;99081.00;;;;346170;28;86605;-91
2023/06/10 00:26:22;;;;;;;;;;;18.80;99.90;18.90;99083.00;;;;342218;28;82502;-92
2023/06/10 00:26:34;;;;;;;;;;;18.80;99.90;18.90;99076.00;;;;343291;28;87747;-92
2023/06/10 00:26:46;;;;;;;;;;;18.80;99.90;18.90;99081.00;;;;344866;28;83462;-91
2023/06/10 00:26:58;;;;;;;;;;;18.80;99.90;18.90;99078.00;;;;344635;28;86292;-91
2023/06/10 00:27:10;;;;;;;;;;;18.80;99.90;19.00;99080.00;;;;340869;28;82483;-91
2023/06/10 00:27:22;;;;;;;;;;;18.80;99.90;19.10;99079.00;;;;345243;28;86417;-91
2023/06/10 00:27:35;;;;;;;;;;;18.80;99.90;19.00;99080.00;;;;344847;28;82484;-91
2023/06/10 00:27:47;;;;;;;;;;;18.80;99.90;19.00;99085.00;;;;344771;28;87450;-90
2023/06/10 00:27:59;;;;;;;;;;;18.80;99.90;19.00;99081.00;;;;345997;28;83537;-91
2023/06/10 00:28:10;;;;;;;;;;;18.80;99.90;18.90;99080.00;;;;343483;28;86767;-91
2023/06/10 00:28:22;;;;;;;;;;;18.80;99.90;19.00;99074.00;;;;344729;28;82584;-91
2023/06/10 00:28:34;;;;;;;;;;;18.80;99.90;19.00;99079.00;;;;343527;28;86017;-91
2023/06/10 00:28:46;;;;;;;;;;;18.80;99.90;19.00;99083.00;;;;343456;28;83360;-91
2023/06/10 00:28:59;;;;;;;;;;;18.80;99.90;19.00;99072.00;;;;344841;28;87422;-91
2023/06/10 00:29:10;;;;;;;;;;;18.80;99.90;19.00;99081.00;;;;346323;28;83376;-91
2023/06/10 00:29:22;;;;;;;;;;;18.80;99.90;18.90;99073.00;;;;341952;28;87277;-92
2023/06/10 00:29:34;;;;;;;;;;;18.80;99.90;18.90;99080.00;;;;342144;28;82479;-91
2023/06/10 00:29:46;;;;;;;;;;;18.80;99.90;18.90;99075.00;;;;343388;28;87455;-91
2023/06/10 00:29:58;;;;;;;;;;;18.80;99.90;18.90;99064.00;;;;344609;28;82679;-91
2023/06/10 00:30:10;;;;;;;;;;;18.80;99.90;18.90;99069.00;;;;343391;28;86676;-92
2023/06/10 00:30:22;;;;;;;;;;;18.80;99.90;18.90;99075.00;;;;344804;28;83565;-91
2023/06/10 00:30:34;;;;;;;;;;;18.80;99.90;19.00;99074.00;;;;343216;28;87526;-92
2023/06/10 00:30:46;;;;;;;;;;;18.80;99.90;19.00;99075.00;;;;342170;28;83439;-91
2023/06/10 00:30:58;;;;;;;;;;;18.80;99.90;19.00;99078.00;;;;344629;28;85513;-92
2023/06/10 00:31:11;;;;;;;;;;;18.80;99.90;19.00;99083.00;;;;343630;28;83454;-91
2023/06/10 00:31:23;;;;;;;;;;;18.80;99.90;19.00;99082.00;;;;342049;28;84300;-91
2023/06/10 00:31:35;;;;;;;;;;;18.80;99.90;19.00;99079.00;;;;346255;28;82303;-92
2023/06/10 00:31:47;;;;;;;;;;;18.80;99.90;19.00;99071.00;;;;344815;28;86766;-91
2023/06/10 00:31:59;;;;;;;;;;;18.80;99.90;19.00;99081.00;;;;343288;28;83651;-92
2023/06/10 00:32:11;;;;;;;;;;;18.80;99.90;18.90;99076.00;;;;340650;28;87037;-92
2023/06/10 00:32:23;;;;;;;;;;;18.80;99.90;19.00;99078.00;;;;343553;28;82505;-91
2023/06/10 00:32:36;;;;;;;;;;;18.80;99.90;19.00;99078.00;;;;347498;28;87421;-92
2023/06/10 00:32:48;;;;;;;;;;;18.80;99.90;19.00;99072.00;;;;342079;28;83474;-91
2023/06/10 00:33:00;;;;;;;;;;;18.80;99.90;19.10;99070.00;;;;341995;28;88033;-90
2023/06/10 00:33:11;;;;;;;;;;;18.80;99.90;19.10;99077.00;;;;343419;28;83297;-90
2023/06/10 00:33:24;;;;;;;;;;;18.80;99.90;19.10;99073.00;;;;343054;28;85483;-91
2023/06/10 00:33:36;;;;;;;;;;;18.90;99.90;19.10;99077.00;;;;341972;28;83430;-91
2023/06/10 00:33:48;;;;;;;;;;;18.90;99.90;19.10;99076.00;;;;343233;28;86540;-91
2023/06/10 00:34:00;;;;;;;;;;;18.90;99.90;19.10;99079.00;;;;340751;28;82371;-91
2023/06/10 00:34:12;;;;;;;;;;;18.90;99.90;19.10;99072.00;;;;341924;28;86164;-90
2023/06/10 00:34:24;;;;;;;;;;;18.90;99.90;19.00;99074.00;;;;344843;28;82498;-91
2023/06/10 00:34:36;;;;;;;;;;;18.90;99.90;19.00;99070.00;;;;341949;28;87816;-91
2023/06/10 00:34:48;;;;;;;;;;;18.90;99.90;19.10;99072.00;;;;344766;28;82502;-91
2023/06/10 00:35:00;;;;;;;;;;;18.90;99.90;19.10;99075.00;;;;346158;28;88108;-91
2023/06/10 00:35:11;;;;;;;;;;;18.90;99.90;19.10;99077.00;;;;343473;28;82462;-91
2023/06/10 00:35:24;;;;;;;;;;;18.90;99.90;19.10;99075.00;;;;344700;28;87507;-91
2023/06/10 00:35:36;;;;;;;;;;;18.90;99.90;19.10;99073.00;;;;346231;28;83312;-90
2023/06/10 00:35:48;;;;;;;;;;;18.90;99.90;19.20;99076.00;;;;346008;28;86449;-91
2023/06/10 00:36:00;;;;;;;;;;;18.90;99.90;19.10;99086.00;;;;344902;28;83389;-91
2023/06/10 00:36:12;;;;;;;;;;;18.90;99.90;19.10;99073.00;;;;343459;28;87475;-91
2023/06/10 00:36:24;;;;;;;;;;;18.90;99.90;19.20;99077.00;;;;343514;28;83352;-91
2023/06/10 00:36:36;;;;;;;;;;;18.90;99.90;19.20;99076.00;;;;346134;28;86390;-91
2023/06/10 00:36:47;;;;;;;;;;;18.90;99.90;19.20;99068.00;;;;343523;28;83409;-91
2023/06/10 00:36:59;;;;;;;;;;;18.90;99.90;19.20;99077.00;;;;344792;28;86262;-91
2023/06/10 00:37:11;;;;;;;;;;;18.90;99.90;19.10;99073.00;;;;347598;28;82524;-91
2023/06/10 00:37:23;;;;;;;;;;;18.90;99.90;19.10;99078.00;;;;343080;28;90285;-91
2023/06/10 00:37:35;;;;;;;;;;;18.90;99.90;19.10;99080.00;;;;343530;28;83393;-91
2023/06/10 00:37:47;;;;;;;;;;;18.90;99.90;19.10;99075.00;;;;341796;28;90648;-91
2023/06/10 00:37:59;;;;;;;;;;;18.90;99.90;19.20;99076.00;;;;346104;28;83454;-90
2023/06/10 00:38:13;;;;;;;;;;;18.90;99.90;19.10;99077.00;;;;345567;28;90528;-91
2023/06/10 00:38:25;;;;;;;;;;;18.90;99.90;19.10;99077.00;;;;344855;28;83173;-91
2023/06/10 00:38:37;;;;;;;;;;;18.90;99.90;19.10;99078.00;;;;342953;28;90897;-91
2023/06/10 00:38:49;;;;;;;;;;;18.90;99.90;19.10;99072.00;;;;345047;28;82392;-91
2023/06/10 00:39:01;;;;;;;;;;;18.90;99.90;19.00;99077.00;;;;345793;28;91399;-91
2023/06/10 00:39:13;;;;;;;;;;;18.90;99.90;19.00;99077.00;;;;341952;28;83323;-91
2023/06/10 00:39:25;;;;;;;;;;;18.90;99.90;19.10;99071.00;;;;343057;28;88292;-91
2023/06/10 00:39:36;;;;;;;;;;;18.90;99.90;19.00;99070.00;;;;342283;28;82439;-90
2023/06/10 00:39:48;;;;;;;;;;;18.90;99.90;18.90;99078.00;;;;344160;28;91846;-91
2023/06/10 00:40:00;;;;;;;;;;;18.90;99.90;19.00;99073.00;;;;343373;28;82483;-91
2023/06/10 00:40:12;;;;;;;;;;;18.90;99.90;19.10;99074.00;;;;344179;28;90693;-91
2023/06/10 00:40:24;;;;;;;;;;;18.90;99.90;19.10;99066.00;;;;343619;28;83367;-90
2023/06/10 00:40:41;;;;;;;;;;;18.90;99.90;19.10;99080.00;;;;342997;28;90808;-91
2023/06/10 00:40:54;;;;;;;;;;;18.90;99.90;19.10;99079.00;;;;342164;28;82450;-91
2023/06/10 00:41:05;;;;;;;;;;;18.90;99.90;19.10;99070.00;;;;341950;28;88500;-91
2023/06/10 00:41:17;;;;;;;;;;;18.90;99.90;19.00;99067.00;;;;341650;28;83619;-91
2023/06/10 00:41:30;;;;;;;;;;;18.90;99.90;19.00;99079.00;;;;343104;28;91409;-90
2023/06/10 00:41:42;;;;;;;;;;;18.90;99.90;19.00;99077.00;;;;342296;28;83330;-91
2023/06/10 00:41:54;;;;;;;;;;;18.90;99.90;19.00;99078.00;;;;343045;28;88355;-91
2023/06/10 00:42:07;;;;;;;;;;;18.90;99.90;19.00;99083.00;;;;340754;28;83287;-91
2023/06/10 00:42:19;;;;;;;;;;;18.90;99.90;18.90;99073.00;;;;341698;28;89309;-91
2023/06/10 00:42:31;;;;;;;;;;;18.90;99.90;18.80;99074.00;;;;343601;28;83392;-91
2023/06/10 00:42:43;;;;;;;;;;;18.90;99.90;18.80;99069.00;;;;344149;28;89869;-90
2023/06/10 00:42:55;;;;;;;;;;;18.80;99.90;18.90;99071.00;;;;343546;28;82516;-91
2023/06/10 00:43:07;;;;;;;;;;;18.80;99.90;18.90;99076.00;;;;342525;28;87136;-91
2023/06/10 00:43:19;;;;;;;;;;;18.90;99.90;18.90;99066.00;;;;342086;28;83381;-91
2023/06/10 00:43:30;;;;;;;;;;;18.90;99.90;18.80;99063.00;;;;343034;28;89603;-91
2023/06/10 00:43:42;;;;;;;;;;;18.90;99.90;18.80;99070.00;;;;344806;28;82548;-91
2023/06/10 00:43:54;;;;;;;;;;;18.80;99.90;18.80;99073.00;;;;343126;28;88047;-90
2023/06/10 00:44:06;;;;;;;;;;;18.80;99.90;18.80;99067.00;;;;341816;28;82574;-91
2023/06/10 00:44:18;;;;;;;;;;;18.80;99.90;18.80;99073.00;;;;345734;28;88862;-91
2023/06/10 00:44:30;;;;;;;;;;;18.80;99.90;18.80;99066.00;;;;346356;28;82399;-90
2023/06/10 00:44:42;;;;;;;;;;;18.80;99.90;18.80;99065.00;;;;345553;28;90217;-90
2023/06/10 00:44:56;;;;;;;;;;;18.80;99.90;18.80;99063.00;;;;341982;28;82637;-91
2023/06/10 00:45:08;;;;;;;;;;;18.80;99.90;18.80;99069.00;;;;342758;28;90629;-91
2023/06/10 00:45:21;;;;;;;;;;;18.80;99.90;18.80;99072.00;;;;343512;28;83339;-91
2023/06/10 00:45:33;;;;;;;;;;;18.80;99.90;18.90;99072.00;;;;341642;28;90275;-91
2023/06/10 00:45:45;;;;;;;;;;;18.80;99.90;19.00;99072.00;;;;343603;28;82396;-90
2023/06/10 00:45:57;;;;;;;;;;;18.80;99.90;19.00;99073.00;;;;343039;28;89790;-90
2023/06/10 00:46:09;;;;;;;;;;;18.80;99.90;19.00;99068.00;;;;342240;28;83456;-90
2023/06/10 00:46:21;;;;;;;;;;;18.80;99.90;19.10;99070.00;;;;341826;28;89394;-91
2023/06/10 00:46:33;;;;;;;;;;;18.80;99.90;19.10;99070.00;;;;343615;28;83147;-91
2023/06/10 00:46:45;;;;;;;;;;;18.80;99.90;19.10;99075.00;;;;343202;28;90232;-90
2023/06/10 00:46:57;;;;;;;;;;;18.80;99.90;19.10;99071.00;;;;343596;28;82547;-91
2023/06/10 00:47:09;;;;;;;;;;;18.80;99.90;19.00;99075.00;;;;344691;28;89077;-90
2023/06/10 00:47:21;;;;;;;;;;;18.90;99.90;18.90;99063.00;;;;346201;28;82547;-91
2023/06/10 00:47:35;;;;;;;;;;;18.80;99.90;19.00;99074.00;;;;344462;28;88472;-91
2023/06/10 00:47:47;;;;;;;;;;;18.80;99.90;19.10;99068.00;;;;343946;28;82405;-91
2023/06/10 00:48:00;;;;;;;;;;;18.80;99.90;19.00;99065.00;;;;345842;28;90113;-92
2023/06/10 00:48:12;;;;;;;;;;;18.90;99.90;18.90;99068.00;;;;345288;28;83499;-91
2023/06/10 00:48:24;;;;;;;;;;;18.80;99.90;18.90;99063.00;;;;344531;28;89673;-91
2023/06/10 00:48:36;;;;;;;;;;;18.80;99.90;18.90;99060.00;;;;342546;28;83196;-90
2023/06/10 00:48:48;;;;;;;;;;;18.80;99.90;18.90;99069.00;;;;342122;28;88103;-91
2023/06/10 00:49:00;;;;;;;;;;;18.80;99.90;18.90;99065.00;;;;346558;28;82497;-90
2023/06/10 00:49:12;;;;;;;;;;;18.80;99.90;19.00;99065.00;;;;344191;28;89108;-91
2023/06/10 00:49:24;;;;;;;;;;;18.80;99.90;19.00;99069.00;;;;342851;28;82380;-91
2023/06/10 00:49:36;;;;;;;;;;;18.80;99.90;19.00;99061.00;;;;342563;28;90528;-91
2023/06/10 00:49:50;;;;;;;;;;;18.80;99.90;18.90;99063.00;;;;344382;28;82444;-91
2023/06/10 00:50:02;;;;;;;;;;;18.80;99.90;18.90;99069.00;;;;345204;28;88333;-90
2023/06/10 00:50:14;;;;;;;;;;;18.80;99.90;19.00;99061.00;;;;344074;28;82745;-90
2023/06/10 00:50:26;;;;;;;;;;;18.80;99.90;18.90;99068.00;;;;342490;28;87549;-91
2023/06/10 00:50:39;;;;;;;;;;;18.80;99.90;18.90;99066.00;;;;345581;28;82552;-90
2023/06/10 00:50:51;;;;;;;;;;;18.80;99.90;19.10;99065.00;;;;342391;28;88607;-91
2023/06/10 00:51:03;;;;;;;;;;;18.80;99.90;18.90;99054.00;;;;342804;28;82594;-91
2023/06/10 00:51:16;;;;;;;;;;;18.80;99.90;18.80;99063.00;;;;345344;28;87435;-90
2023/06/10 00:51:28;;;;;;;;;;;18.80;99.90;18.80;99065.00;;;;344922;28;82470;-90
2023/06/10 00:51:40;;;;;;;;;;;18.80;99.90;18.80;99066.00;;;;342047;28;88364;-88
2023/06/10 00:51:52;;;;;;;;;;;18.80;99.90;18.80;99061.00;;;;343461;28;82559;-91
2023/06/10 00:52:04;;;;;;;;;;;18.80;99.90;18.70;99065.00;;;;346026;28;88305;-88
2023/06/10 00:52:17;;;;;;;;;;;18.80;99.90;18.80;99061.00;;;;344975;28;82592;-89
2023/06/10 00:52:30;;;;;;;;;;;18.80;99.90;18.80;99060.00;;;;345734;28;90043;-89
2023/06/10 00:52:44;;;;;;;;;;;18.80;99.90;18.80;99055.00;;;;343762;28;82470;-89
2023/06/10 00:52:56;;;;;;;;;;;18.80;99.90;18.90;99064.00;;;;344329;28;89333;-89
2023/06/10 00:53:08;;;;;;;;;;;18.80;99.90;18.90;99064.00;;;;347508;28;83299;-90
2023/06/10 00:53:21;;;;;;;;;;;18.80;99.90;18.90;99055.00;;;;345100;28;87946;-90
2023/06/10 00:53:33;;;;;;;;;;;18.80;99.90;18.90;99063.00;;;;344125;28;83593;-90
2023/06/10 00:53:45;;;;;;;;;;;18.80;99.90;18.80;99056.00;;;;339817;28;89005;-90
2023/06/10 00:53:57;;;;;;;;;;;18.80;99.90;18.80;99062.00;;;;345466;28;83260;-90
2023/06/10 00:54:09;;;;;;;;;;;18.80;99.90;18.80;99059.00;;;;345076;28;88366;-90
2023/06/10 00:54:21;;;;;;;;;;;18.80;99.90;19.00;99062.00;;;;346774;28;83395;-90
2023/06/10 00:54:33;;;;;;;;;;;18.80;99.90;18.90;99061.00;;;;340983;28;89058;-91
2023/06/10 00:54:44;;;;;;;;;;;18.80;99.90;18.90;99061.00;;;;342648;28;82586;-89
2023/06/10 00:54:56;;;;;;;;;;;18.80;99.90;18.80;99060.00;;;;343734;28;87532;-90
2023/06/10 00:55:08;;;;;;;;;;;18.80;99.90;18.80;99059.00;;;;345371;28;82549;-90
2023/06/10 00:55:21;;;;;;;;;;;18.80;99.90;18.80;99057.00;;;;346157;28;88236;-90
2023/06/10 00:55:33;;;;;;;;;;;18.80;99.90;18.80;99051.00;;;;345420;28;83547;-89
2023/06/10 00:55:44;;;;;;;;;;;18.80;99.90;18.90;99057.00;;;;343427;28;89480;-90
2023/06/10 00:55:56;;;;;;;;;;;18.80;99.90;18.90;99052.00;;;;342590;28;82575;-88
2023/06/10 00:56:08;;;;;;;;;;;18.80;99.90;18.90;99059.00;;;;342394;28;88083;-90
2023/06/10 00:56:21;;;;;;;;;;;18.80;99.90;18.90;99056.00;;;;344227;28;82428;-90
2023/06/10 00:56:34;;;;;;;;;;;18.80;99.90;18.90;99058.00;;;;342167;28;91188;-90
2023/06/10 00:56:47;;;;;;;;;;;18.70;99.90;18.90;99054.00;;;;343935;28;83541;-90
2023/06/10 00:57:03;;;;;;;;;;;18.80;99.90;18.80;99054.00;;;;343255;28;88463;-91
2023/06/10 00:57:14;;;;;;;;;;;18.70;99.90;18.80;99055.00;;;;342268;28;82438;-90
2023/06/10 00:57:27;;;;;;;;;;;18.80;99.90;18.80;99053.00;;;;341752;28;88380;-90
2023/06/10 00:57:38;;;;;;;;;;;18.70;99.90;18.80;99058.00;;;;344263;28;82574;-90
2023/06/10 00:57:51;;;;;;;;;;;18.80;99.90;18.80;99058.00;;;;344461;28;88841;-90
2023/06/10 00:58:03;;;;;;;;;;;18.80;99.90;18.80;99055.00;;;;343602;28;82377;-91
2023/06/10 00:58:15;;;;;;;;;;;18.80;99.90;18.90;99056.00;;;;344129;28;89965;-90
2023/06/10 00:58:27;;;;;;;;;;;18.70;99.90;18.80;99061.00;;;;344748;28;82573;-91
2023/06/10 00:58:39;;;;;;;;;;;18.80;99.90;18.90;99064.00;;;;345934;28;87231;-90
2023/06/10 00:58:51;;;;;;;;;;;18.80;99.90;19.00;99061.00;;;;343174;28;83325;-90
2023/06/10 00:59:03;;;;;;;;;;;18.80;99.90;18.90;99061.00;;;;341848;28;86912;-91
2023/06/10 00:59:15;;;;;;;;;;;18.80;99.90;19.00;99059.00;;;;343625;28;83094;-90
2023/06/10 00:59:28;;;;;;;;;;;18.80;99.90;19.00;99059.00;;;;343146;28;88100;-90
2023/06/10 00:59:41;;;;;;;;;;;18.80;99.90;19.00;99054.00;;;;343281;28;83543;-91
2023/06/10 00:59:53;;;;;;;;;;;18.80;99.90;19.00;99062.00;;;;339101;28;88294;-90
2023/06/10 01:00:08;;;;;;;;;;;18.80;99.90;19.00;99063.00;;;;343391;28;82581;-91
2023/06/10 01:00:20;;;;;;;;;;;18.80;99.90;18.90;99061.00;;;;341471;28;90266;-90
2023/06/10 01:00:32;;;;;;;;;;;18.80;99.90;18.90;99061.00;;;;343311;28;82525;-91
2023/06/10 01:00:45;;;;;;;;;;;18.80;99.90;18.90;99060.00;;;;341688;28;90419;-91
2023/06/10 01:00:57;;;;;;;;;;;18.80;99.90;18.90;99059.00;;;;342126;28;83283;-91
2023/06/10 01:01:10;;;;;;;;;;;18.80;99.90;19.00;99053.00;;;;344302;28;92043;-91
2023/06/10 01:01:23;;;;;;;;;;;18.80;99.90;18.80;99059.00;;;;343559;28;83141;-91
2023/06/10 01:01:37;;;;;;;;;;;18.80;99.90;18.90;99060.00;;;;339161;28;89527;-92
2023/06/10 01:01:49;;;;;;;;;;;18.80;99.90;19.00;99054.00;;;;341944;28;83546;-91
2023/06/10 01:02:03;;;;;;;;;;;18.80;99.90;18.90;99058.00;;;;345967;28;87982;-91